sensor_id;sensor_type;location;lat;lon;timestamp;P1;durP1;ratioP1;P2;durP2;ratioP2
9461;SDS011;4769;42.660;23.262;2023-03-01T00:00:01;6.10;;;5.50;;
9461;SDS011;4769;42.660;23.262;2023-03-01T00:02:30;6.30;;;4.87;;
9461;SDS011;4769;42.660;23.262;2023-03-01T00:04:56;5.77;;;5.27;;
9461;SDS011;4769;42.660;23.262;2023-03-01T00:07:22;5.77;;;5.23;;
9461;SDS011;4769;42.660;23.262;2023-03-01T00:09:47;6.03;;;5.43;;
9461;SDS011;4769;42.660;23.262;2023-03-01T00:12:13;6.27;;;5.67;;
9461;SDS011;4769;42.660;23.262;2023-03-01T00:14:39;6.17;;;5.57;;
9461;SDS011;4769;42.660;23.262;2023-03-01T00:17:04;6.50;;;5.60;;
9461;SDS011;4769;42.660;23.262;2023-03-01T00:19:33;5.90;;;5.27;;
9461;SDS011;4769;42.660;23.262;2023-03-01T00:21:59;5.97;;;5.37;;
9461;SDS011;4769;42.660;23.262;2023-03-01T00:24:25;5.93;;;5.43;;
9461;SDS011;4769;42.660;23.262;2023-03-01T00:26:52;5.80;;;5.10;;
9461;SDS011;4769;42.660;23.262;2023-03-01T00:29:18;5.30;;;4.80;;
9461;SDS011;4769;42.660;23.262;2023-03-01T00:31:43;5.17;;;4.67;;
9461;SDS011;4769;42.660;23.262;2023-03-01T00:34:09;5.80;;;4.93;;
9461;SDS011;4769;42.660;23.262;2023-03-01T00:36:38;4.77;;;4.37;;
9461;SDS011;4769;42.660;23.262;2023-03-01T00:39:04;4.90;;;4.50;;
9461;SDS011;4769;42.660;23.262;2023-03-01T00:41:33;4.90;;;4.50;;
9461;SDS011;4769;42.660;23.262;2023-03-01T00:43:58;4.50;;;4.10;;
9461;SDS011;4769;42.660;23.262;2023-03-01T00:46:25;4.40;;;4.00;;
9461;SDS011;4769;42.660;23.262;2023-03-01T00:48:52;4.57;;;4.17;;
9461;SDS011;4769;42.660;23.262;2023-03-01T00:51:19;4.10;;;3.80;;
9461;SDS011;4769;42.660;23.262;2023-03-01T00:53:49;4.70;;;4.30;;
9461;SDS011;4769;42.660;23.262;2023-03-01T00:56:16;5.17;;;4.67;;
9461;SDS011;4769;42.660;23.262;2023-03-01T00:58:42;4.83;;;4.30;;
9461;SDS011;4769;42.660;23.262;2023-03-01T01:01:09;5.43;;;4.93;;
9461;SDS011;4769;42.660;23.262;2023-03-01T01:03:36;5.77;;;4.47;;
9461;SDS011;4769;42.660;23.262;2023-03-01T01:06:02;4.40;;;4.00;;
9461;SDS011;4769;42.660;23.262;2023-03-01T01:08:28;4.33;;;3.93;;
9461;SDS011;4769;42.660;23.262;2023-03-01T01:10:56;4.30;;;3.90;;
9461;SDS011;4769;42.660;23.262;2023-03-01T01:13:22;4.77;;;4.37;;
9461;SDS011;4769;42.660;23.262;2023-03-01T01:15:47;4.67;;;4.17;;
9461;SDS011;4769;42.660;23.262;2023-03-01T01:18:13;4.80;;;4.30;;
9461;SDS011;4769;42.660;23.262;2023-03-01T01:20:39;3.93;;;3.63;;
9461;SDS011;4769;42.660;23.262;2023-03-01T01:23:05;3.67;;;3.37;;
9461;SDS011;4769;42.660;23.262;2023-03-01T01:25:31;5.07;;;3.87;;
9461;SDS011;4769;42.660;23.262;2023-03-01T01:28:02;4.27;;;3.83;;
9461;SDS011;4769;42.660;23.262;2023-03-01T01:30:28;4.47;;;3.80;;
9461;SDS011;4769;42.660;23.262;2023-03-01T01:32:54;3.47;;;3.17;;
9461;SDS011;4769;42.660;23.262;2023-03-01T01:35:19;3.50;;;3.20;;
9461;SDS011;4769;42.660;23.262;2023-03-01T01:37:45;3.83;;;3.53;;
9461;SDS011;4769;42.660;23.262;2023-03-01T01:40:11;3.80;;;3.40;;
9461;SDS011;4769;42.660;23.262;2023-03-01T01:42:38;3.30;;;3.00;;
9461;SDS011;4769;42.660;23.262;2023-03-01T01:47:53;3.53;;;3.23;;
9461;SDS011;4769;42.660;23.262;2023-03-01T01:50:22;3.43;;;3.13;;
9461;SDS011;4769;42.660;23.262;2023-03-01T01:52:48;3.77;;;2.90;;
9461;SDS011;4769;42.660;23.262;2023-03-01T01:55:18;3.20;;;2.90;;
9461;SDS011;4769;42.660;23.262;2023-03-01T01:57:48;2.90;;;2.70;;
9461;SDS011;4769;42.660;23.262;2023-03-01T02:00:17;3.33;;;3.03;;
9461;SDS011;4769;42.660;23.262;2023-03-01T02:02:48;3.03;;;2.40;;
9461;SDS011;4769;42.660;23.262;2023-03-01T02:05:17;3.33;;;2.70;;
9461;SDS011;4769;42.660;23.262;2023-03-01T02:07:50;2.27;;;2.17;;
9461;SDS011;4769;42.660;23.262;2023-03-01T02:10:17;2.30;;;2.20;;
9461;SDS011;4769;42.660;23.262;2023-03-01T02:12:43;2.70;;;2.50;;
9461;SDS011;4769;42.660;23.262;2023-03-01T02:15:10;2.47;;;2.27;;
9461;SDS011;4769;42.660;23.262;2023-03-01T02:17:36;2.17;;;2.07;;
9461;SDS011;4769;42.660;23.262;2023-03-01T02:20:07;2.63;;;2.43;;
9461;SDS011;4769;42.660;23.262;2023-03-01T02:22:41;2.50;;;2.30;;
9461;SDS011;4769;42.660;23.262;2023-03-01T02:25:12;2.70;;;2.50;;
9461;SDS011;4769;42.660;23.262;2023-03-01T02:27:54;4.07;;;2.67;;
9461;SDS011;4769;42.660;23.262;2023-03-01T02:30:30;2.60;;;2.40;;
9461;SDS011;4769;42.660;23.262;2023-03-01T02:32:57;2.57;;;2.37;;
9461;SDS011;4769;42.660;23.262;2023-03-01T02:35:25;2.27;;;2.17;;
9461;SDS011;4769;42.660;23.262;2023-03-01T02:37:51;2.73;;;2.53;;
9461;SDS011;4769;42.660;23.262;2023-03-01T02:40:17;2.50;;;2.37;;
9461;SDS011;4769;42.660;23.262;2023-03-01T02:42:46;2.43;;;2.30;;
9461;SDS011;4769;42.660;23.262;2023-03-01T02:45:15;2.60;;;2.40;;
9461;SDS011;4769;42.660;23.262;2023-03-01T02:47:43;2.70;;;2.50;;
9461;SDS011;4769;42.660;23.262;2023-03-01T02:50:12;3.00;;;2.80;;
9461;SDS011;4769;42.660;23.262;2023-03-01T02:52:48;3.00;;;2.80;;
9461;SDS011;4769;42.660;23.262;2023-03-01T02:55:22;2.80;;;2.60;;
9461;SDS011;4769;42.660;23.262;2023-03-01T02:57:47;3.20;;;3.00;;
9461;SDS011;4769;42.660;23.262;2023-03-01T03:00:15;3.30;;;3.00;;
9461;SDS011;4769;42.660;23.262;2023-03-01T03:02:46;3.10;;;2.90;;
9461;SDS011;4769;42.660;23.262;2023-03-01T03:05:15;3.33;;;3.13;;
9461;SDS011;4769;42.660;23.262;2023-03-01T03:07:43;3.87;;;3.50;;
9461;SDS011;4769;42.660;23.262;2023-03-01T03:10:12;3.67;;;3.37;;
9461;SDS011;4769;42.660;23.262;2023-03-01T03:12:40;4.13;;;3.73;;
9461;SDS011;4769;42.660;23.262;2023-03-01T03:15:07;4.23;;;3.90;;
9461;SDS011;4769;42.660;23.262;2023-03-01T03:17:34;4.50;;;4.10;;
9461;SDS011;4769;42.660;23.262;2023-03-01T03:20:04;4.90;;;4.50;;
9461;SDS011;4769;42.660;23.262;2023-03-01T03:22:31;5.20;;;4.80;;
9461;SDS011;4769;42.660;23.262;2023-03-01T03:24:57;6.53;;;5.93;;
9461;SDS011;4769;42.660;23.262;2023-03-01T03:27:23;6.43;;;5.83;;
9461;SDS011;4769;42.660;23.262;2023-03-01T03:29:49;6.50;;;5.90;;
9461;SDS011;4769;42.660;23.262;2023-03-01T03:32:14;6.00;;;5.50;;
9461;SDS011;4769;42.660;23.262;2023-03-01T03:34:40;6.43;;;5.83;;
9461;SDS011;4769;42.660;23.262;2023-03-01T03:37:08;6.23;;;5.67;;
9461;SDS011;4769;42.660;23.262;2023-03-01T03:39:34;6.80;;;6.10;;
9461;SDS011;4769;42.660;23.262;2023-03-01T03:42:00;6.53;;;5.93;;
9461;SDS011;4769;42.660;23.262;2023-03-01T03:44:26;6.20;;;5.63;;
9461;SDS011;4769;42.660;23.262;2023-03-01T03:46:52;6.40;;;5.80;;
9461;SDS011;4769;42.660;23.262;2023-03-01T03:49:17;6.97;;;6.07;;
9461;SDS011;4769;42.660;23.262;2023-03-01T03:51:44;6.33;;;5.73;;
9461;SDS011;4769;42.660;23.262;2023-03-01T03:54:13;6.27;;;5.67;;
9461;SDS011;4769;42.660;23.262;2023-03-01T03:56:39;6.97;;;6.27;;
9461;SDS011;4769;42.660;23.262;2023-03-01T03:59:04;6.13;;;5.53;;
9461;SDS011;4769;42.660;23.262;2023-03-01T04:01:30;6.07;;;5.47;;
9461;SDS011;4769;42.660;23.262;2023-03-01T04:03:56;6.10;;;5.43;;
9461;SDS011;4769;42.660;23.262;2023-03-01T04:06:22;6.23;;;5.50;;
9461;SDS011;4769;42.660;23.262;2023-03-01T04:08:47;5.43;;;4.93;;
9461;SDS011;4769;42.660;23.262;2023-03-01T04:11:16;5.43;;;4.93;;
9461;SDS011;4769;42.660;23.262;2023-03-01T04:13:41;5.10;;;4.60;;
9461;SDS011;4769;42.660;23.262;2023-03-01T04:16:07;4.67;;;4.10;;
9461;SDS011;4769;42.660;23.262;2023-03-01T04:18:33;5.43;;;4.93;;
9461;SDS011;4769;42.660;23.262;2023-03-01T04:20:58;4.77;;;4.37;;
9461;SDS011;4769;42.660;23.262;2023-03-01T04:23:24;4.33;;;3.93;;
9461;SDS011;4769;42.660;23.262;2023-03-01T04:25:51;5.27;;;4.73;;
9461;SDS011;4769;42.660;23.262;2023-03-01T04:28:20;4.30;;;3.90;;
9461;SDS011;4769;42.660;23.262;2023-03-01T04:30:47;5.00;;;4.20;;
9461;SDS011;4769;42.660;23.262;2023-03-01T04:33:13;5.40;;;4.43;;
9461;SDS011;4769;42.660;23.262;2023-03-01T04:35:39;4.67;;;4.23;;
9461;SDS011;4769;42.660;23.262;2023-03-01T04:38:04;5.13;;;4.63;;
9461;SDS011;4769;42.660;23.262;2023-03-01T04:40:31;5.33;;;4.80;;
9461;SDS011;4769;42.660;23.262;2023-03-01T04:42:56;9.50;;;4.97;;
9461;SDS011;4769;42.660;23.262;2023-03-01T04:45:25;5.10;;;4.63;;
9461;SDS011;4769;42.660;23.262;2023-03-01T04:47:50;5.43;;;4.60;;
9461;SDS011;4769;42.660;23.262;2023-03-01T04:50:16;5.57;;;5.03;;
9461;SDS011;4769;42.660;23.262;2023-03-01T04:52:43;5.63;;;5.13;;
9461;SDS011;4769;42.660;23.262;2023-03-01T04:55:12;6.70;;;5.50;;
9461;SDS011;4769;42.660;23.262;2023-03-01T04:57:38;6.63;;;5.23;;
9461;SDS011;4769;42.660;23.262;2023-03-01T05:00:05;5.53;;;5.03;;
9461;SDS011;4769;42.660;23.262;2023-03-01T05:02:35;5.87;;;5.27;;
9461;SDS011;4769;42.660;23.262;2023-03-01T05:05:01;7.47;;;5.60;;
9461;SDS011;4769;42.660;23.262;2023-03-01T05:07:27;5.90;;;5.10;;
9461;SDS011;4769;42.660;23.262;2023-03-01T05:09:52;6.63;;;5.70;;
9461;SDS011;4769;42.660;23.262;2023-03-01T05:12:18;7.67;;;6.37;;
9461;SDS011;4769;42.660;23.262;2023-03-01T05:14:44;7.70;;;6.90;;
9461;SDS011;4769;42.660;23.262;2023-03-01T05:17:10;7.73;;;6.97;;
9461;SDS011;4769;42.660;23.262;2023-03-01T05:19:39;7.40;;;6.70;;
9461;SDS011;4769;42.660;23.262;2023-03-01T05:22:04;8.47;;;6.97;;
9461;SDS011;4769;42.660;23.262;2023-03-01T05:24:31;5.97;;;5.23;;
9461;SDS011;4769;42.660;23.262;2023-03-01T05:26:58;6.43;;;5.70;;
9461;SDS011;4769;42.660;23.262;2023-03-01T05:29:25;6.43;;;5.83;;
9461;SDS011;4769;42.660;23.262;2023-03-01T05:31:52;7.73;;;5.63;;
9461;SDS011;4769;42.660;23.262;2023-03-01T05:34:19;5.70;;;5.10;;
9461;SDS011;4769;42.660;23.262;2023-03-01T05:36:58;5.40;;;4.90;;
9461;SDS011;4769;42.660;23.262;2023-03-01T05:39:36;8.43;;;6.93;;
9461;SDS011;4769;42.660;23.262;2023-03-01T05:42:05;6.27;;;5.30;;
9461;SDS011;4769;42.660;23.262;2023-03-01T05:44:30;5.33;;;4.43;;
9461;SDS011;4769;42.660;23.262;2023-03-01T05:46:56;4.87;;;4.37;;
9461;SDS011;4769;42.660;23.262;2023-03-01T05:49:23;7.70;;;5.00;;
9461;SDS011;4769;42.660;23.262;2023-03-01T05:51:51;4.07;;;3.67;;
9461;SDS011;4769;42.660;23.262;2023-03-01T05:54:20;5.00;;;4.50;;
9461;SDS011;4769;42.660;23.262;2023-03-01T05:56:47;6.73;;;4.20;;
9461;SDS011;4769;42.660;23.262;2023-03-01T05:59:13;5.70;;;4.00;;
9461;SDS011;4769;42.660;23.262;2023-03-01T06:01:38;3.80;;;3.50;;
9461;SDS011;4769;42.660;23.262;2023-03-01T06:04:04;5.23;;;3.57;;
9461;SDS011;4769;42.660;23.262;2023-03-01T06:06:33;3.83;;;3.40;;
9461;SDS011;4769;42.660;23.262;2023-03-01T06:08:59;4.80;;;4.30;;
9461;SDS011;4769;42.660;23.262;2023-03-01T06:11:27;4.70;;;4.20;;
9461;SDS011;4769;42.660;23.262;2023-03-01T06:13:53;3.87;;;3.57;;
9461;SDS011;4769;42.660;23.262;2023-03-01T06:16:27;9.83;;;5.53;;
9461;SDS011;4769;42.660;23.262;2023-03-01T06:18:53;6.87;;;4.70;;
9461;SDS011;4769;42.660;23.262;2023-03-01T06:21:19;15.83;;;12.53;;
9461;SDS011;4769;42.660;23.262;2023-03-01T06:23:44;5.17;;;4.40;;
9461;SDS011;4769;42.660;23.262;2023-03-01T06:26:10;5.73;;;4.70;;
9461;SDS011;4769;42.660;23.262;2023-03-01T06:28:38;10.73;;;5.53;;
9461;SDS011;4769;42.660;23.262;2023-03-01T06:31:04;5.83;;;3.33;;
9461;SDS011;4769;42.660;23.262;2023-03-01T06:33:30;4.87;;;3.80;;
9461;SDS011;4769;42.660;23.262;2023-03-01T06:35:56;9.27;;;4.67;;
9461;SDS011;4769;42.660;23.262;2023-03-01T06:38:22;4.87;;;3.77;;
9461;SDS011;4769;42.660;23.262;2023-03-01T06:40:51;4.10;;;3.70;;
9461;SDS011;4769;42.660;23.262;2023-03-01T06:43:17;5.87;;;4.60;;
9461;SDS011;4769;42.660;23.262;2023-03-01T06:45:45;9.43;;;4.77;;
9461;SDS011;4769;42.660;23.262;2023-03-01T06:48:11;5.33;;;3.80;;
9461;SDS011;4769;42.660;23.262;2023-03-01T06:50:36;6.83;;;3.63;;
9461;SDS011;4769;42.660;23.262;2023-03-01T06:53:02;6.03;;;3.43;;
9461;SDS011;4769;42.660;23.262;2023-03-01T06:55:29;4.73;;;3.73;;
9461;SDS011;4769;42.660;23.262;2023-03-01T06:57:55;7.33;;;3.87;;
9461;SDS011;4769;42.660;23.262;2023-03-01T07:00:21;6.30;;;3.70;;
9461;SDS011;4769;42.660;23.262;2023-03-01T07:02:50;5.37;;;3.37;;
9461;SDS011;4769;42.660;23.262;2023-03-01T07:05:16;4.27;;;3.37;;
9461;SDS011;4769;42.660;23.262;2023-03-01T07:07:42;6.40;;;3.63;;
9461;SDS011;4769;42.660;23.262;2023-03-01T07:10:09;7.50;;;3.60;;
9461;SDS011;4769;42.660;23.262;2023-03-01T07:12:35;6.63;;;3.37;;
9461;SDS011;4769;42.660;23.262;2023-03-01T07:15:01;5.80;;;3.10;;
9461;SDS011;4769;42.660;23.262;2023-03-01T07:17:27;4.97;;;3.10;;
9461;SDS011;4769;42.660;23.262;2023-03-01T07:19:55;4.33;;;3.10;;
9461;SDS011;4769;42.660;23.262;2023-03-01T07:22:21;4.50;;;3.80;;
9461;SDS011;4769;42.660;23.262;2023-03-01T07:24:47;4.80;;;3.60;;
9461;SDS011;4769;42.660;23.262;2023-03-01T07:27:12;4.97;;;3.50;;
9461;SDS011;4769;42.660;23.262;2023-03-01T07:29:38;7.10;;;4.27;;
9461;SDS011;4769;42.660;23.262;2023-03-01T07:32:04;4.67;;;3.90;;
9461;SDS011;4769;42.660;23.262;2023-03-01T07:34:30;8.57;;;3.60;;
9461;SDS011;4769;42.660;23.262;2023-03-01T07:36:59;6.63;;;4.00;;
9461;SDS011;4769;42.660;23.262;2023-03-01T07:39:25;7.07;;;3.57;;
9461;SDS011;4769;42.660;23.262;2023-03-01T07:41:51;8.77;;;3.70;;
9461;SDS011;4769;42.660;23.262;2023-03-01T07:44:17;5.07;;;3.10;;
9461;SDS011;4769;42.660;23.262;2023-03-01T07:46:42;10.77;;;4.17;;
9461;SDS011;4769;42.660;23.262;2023-03-01T07:49:08;7.20;;;3.60;;
9461;SDS011;4769;42.660;23.262;2023-03-01T07:51:34;7.23;;;4.03;;
9461;SDS011;4769;42.660;23.262;2023-03-01T07:54:02;9.53;;;4.23;;
9461;SDS011;4769;42.660;23.262;2023-03-01T07:56:28;8.87;;;3.87;;
9461;SDS011;4769;42.660;23.262;2023-03-01T07:58:54;4.33;;;3.37;;
9461;SDS011;4769;42.660;23.262;2023-03-01T08:01:20;6.57;;;3.37;;
9461;SDS011;4769;42.660;23.262;2023-03-01T08:03:46;6.73;;;4.63;;
9461;SDS011;4769;42.660;23.262;2023-03-01T08:06:12;6.97;;;3.80;;
9461;SDS011;4769;42.660;23.262;2023-03-01T08:08:40;4.50;;;3.47;;
9461;SDS011;4769;42.660;23.262;2023-03-01T08:11:10;7.77;;;4.33;;
9461;SDS011;4769;42.660;23.262;2023-03-01T08:13:37;10.33;;;5.10;;
9461;SDS011;4769;42.660;23.262;2023-03-01T08:16:04;8.77;;;4.57;;
9461;SDS011;4769;42.660;23.262;2023-03-01T08:18:31;8.47;;;4.63;;
9461;SDS011;4769;42.660;23.262;2023-03-01T08:21:01;9.60;;;5.30;;
9461;SDS011;4769;42.660;23.262;2023-03-01T08:23:29;6.23;;;4.40;;
9461;SDS011;4769;42.660;23.262;2023-03-01T08:25:55;8.97;;;4.60;;
9461;SDS011;4769;42.660;23.262;2023-03-01T08:28:32;9.00;;;5.60;;
9461;SDS011;4769;42.660;23.262;2023-03-01T08:30:58;12.47;;;6.20;;
9461;SDS011;4769;42.660;23.262;2023-03-01T08:33:24;11.27;;;5.40;;
9461;SDS011;4769;42.660;23.262;2023-03-01T08:35:49;8.37;;;5.30;;
9461;SDS011;4769;42.660;23.262;2023-03-01T08:38:15;8.07;;;4.17;;
9461;SDS011;4769;42.660;23.262;2023-03-01T08:40:41;8.10;;;4.20;;
9461;SDS011;4769;42.660;23.262;2023-03-01T08:43:07;3.43;;;3.13;;
9461;SDS011;4769;42.660;23.262;2023-03-01T08:45:36;7.03;;;3.93;;
9461;SDS011;4769;42.660;23.262;2023-03-01T08:48:01;5.03;;;3.77;;
9461;SDS011;4769;42.660;23.262;2023-03-01T08:50:27;8.03;;;4.13;;
9461;SDS011;4769;42.660;23.262;2023-03-01T08:52:53;6.30;;;4.87;;
9461;SDS011;4769;42.660;23.262;2023-03-01T08:55:19;3.80;;;3.47;;
9461;SDS011;4769;42.660;23.262;2023-03-01T08:57:44;5.63;;;5.00;;
9461;SDS011;4769;42.660;23.262;2023-03-01T09:00:10;10.53;;;5.80;;
9461;SDS011;4769;42.660;23.262;2023-03-01T09:02:40;7.17;;;4.80;;
9461;SDS011;4769;42.660;23.262;2023-03-01T09:05:06;8.07;;;4.17;;
9461;SDS011;4769;42.660;23.262;2023-03-01T09:07:34;9.20;;;3.80;;
9461;SDS011;4769;42.660;23.262;2023-03-01T09:10:00;6.17;;;4.67;;
9461;SDS011;4769;42.660;23.262;2023-03-01T09:12:26;4.60;;;3.73;;
9461;SDS011;4769;42.660;23.262;2023-03-01T09:14:51;5.47;;;4.30;;
9461;SDS011;4769;42.660;23.262;2023-03-01T09:17:17;4.93;;;4.00;;
9461;SDS011;4769;42.660;23.262;2023-03-01T09:19:45;5.17;;;3.50;;
9461;SDS011;4769;42.660;23.262;2023-03-01T09:22:11;3.87;;;3.57;;
9461;SDS011;4769;42.660;23.262;2023-03-01T09:24:37;6.13;;;3.87;;
9461;SDS011;4769;42.660;23.262;2023-03-01T09:27:02;7.40;;;4.57;;
9461;SDS011;4769;42.660;23.262;2023-03-01T09:29:28;6.70;;;4.50;;
9461;SDS011;4769;42.660;23.262;2023-03-01T09:31:54;11.33;;;7.13;;
9461;SDS011;4769;42.660;23.262;2023-03-01T09:34:19;8.07;;;4.73;;
9461;SDS011;4769;42.660;23.262;2023-03-01T09:36:48;5.90;;;4.80;;
9461;SDS011;4769;42.660;23.262;2023-03-01T09:39:13;7.07;;;5.10;;
9461;SDS011;4769;42.660;23.262;2023-03-01T09:41:43;13.37;;;5.40;;
9461;SDS011;4769;42.660;23.262;2023-03-01T09:44:15;6.00;;;4.20;;
9461;SDS011;4769;42.660;23.262;2023-03-01T09:46:49;4.80;;;3.90;;
9461;SDS011;4769;42.660;23.262;2023-03-01T09:49:17;5.20;;;3.77;;
9461;SDS011;4769;42.660;23.262;2023-03-01T09:51:53;4.87;;;4.33;;
9461;SDS011;4769;42.660;23.262;2023-03-01T09:54:21;7.37;;;3.80;;
9461;SDS011;4769;42.660;23.262;2023-03-01T09:56:51;6.23;;;4.23;;
9461;SDS011;4769;42.660;23.262;2023-03-01T09:59:23;6.33;;;4.10;;
9461;SDS011;4769;42.660;23.262;2023-03-01T10:01:56;10.13;;;4.50;;
9461;SDS011;4769;42.660;23.262;2023-03-01T10:04:27;5.87;;;4.03;;
9461;SDS011;4769;42.660;23.262;2023-03-01T10:07:02;5.33;;;4.10;;
9461;SDS011;4769;42.660;23.262;2023-03-01T10:09:39;4.30;;;3.90;;
9461;SDS011;4769;42.660;23.262;2023-03-01T10:12:08;5.67;;;3.90;;
9461;SDS011;4769;42.660;23.262;2023-03-01T10:14:38;4.87;;;3.80;;
9461;SDS011;4769;42.660;23.262;2023-03-01T10:17:09;5.13;;;4.57;;
9461;SDS011;4769;42.660;23.262;2023-03-01T10:19:42;8.57;;;4.67;;
9461;SDS011;4769;42.660;23.262;2023-03-01T10:22:13;5.27;;;3.83;;
9461;SDS011;4769;42.660;23.262;2023-03-01T10:24:41;4.97;;;4.47;;
9461;SDS011;4769;42.660;23.262;2023-03-01T10:27:08;4.60;;;4.20;;
9461;SDS011;4769;42.660;23.262;2023-03-01T10:29:42;4.73;;;3.80;;
9461;SDS011;4769;42.660;23.262;2023-03-01T10:32:14;6.97;;;3.93;;
9461;SDS011;4769;42.660;23.262;2023-03-01T10:34:40;5.17;;;4.20;;
9461;SDS011;4769;42.660;23.262;2023-03-01T10:37:09;9.00;;;4.20;;
9461;SDS011;4769;42.660;23.262;2023-03-01T10:39:54;6.97;;;4.60;;
9461;SDS011;4769;42.660;23.262;2023-03-01T10:42:22;6.63;;;4.63;;
9461;SDS011;4769;42.660;23.262;2023-03-01T10:44:52;5.67;;;4.83;;
9461;SDS011;4769;42.660;23.262;2023-03-01T10:47:18;11.17;;;4.90;;
9461;SDS011;4769;42.660;23.262;2023-03-01T10:49:56;7.07;;;4.13;;
9461;SDS011;4769;42.660;23.262;2023-03-01T10:55:24;9.90;;;6.20;;
9461;SDS011;4769;42.660;23.262;2023-03-01T10:58:06;5.97;;;4.33;;
9461;SDS011;4769;42.660;23.262;2023-03-01T11:00:33;13.67;;;8.60;;
9461;SDS011;4769;42.660;23.262;2023-03-01T11:03:16;9.03;;;7.57;;
9461;SDS011;4769;42.660;23.262;2023-03-01T11:05:50;7.00;;;4.17;;
9461;SDS011;4769;42.660;23.262;2023-03-01T11:08:31;6.53;;;4.30;;
9461;SDS011;4769;42.660;23.262;2023-03-01T11:11:06;6.10;;;4.10;;
9461;SDS011;4769;42.660;23.262;2023-03-01T11:13:46;6.37;;;4.73;;
9461;SDS011;4769;42.660;23.262;2023-03-01T11:16:16;6.60;;;4.53;;
9461;SDS011;4769;42.660;23.262;2023-03-01T11:18:55;7.80;;;5.20;;
9461;SDS011;4769;42.660;23.262;2023-03-01T11:21:22;8.50;;;5.30;;
9461;SDS011;4769;42.660;23.262;2023-03-01T11:23:52;6.17;;;5.10;;
9461;SDS011;4769;42.660;23.262;2023-03-01T11:26:18;9.03;;;5.00;;
9461;SDS011;4769;42.660;23.262;2023-03-01T11:28:47;5.27;;;4.07;;
9461;SDS011;4769;42.660;23.262;2023-03-01T11:31:16;5.50;;;4.40;;
9461;SDS011;4769;42.660;23.262;2023-03-01T11:33:44;10.23;;;5.80;;
9461;SDS011;4769;42.660;23.262;2023-03-01T11:36:16;7.40;;;5.40;;
9461;SDS011;4769;42.660;23.262;2023-03-01T11:38:54;5.03;;;4.40;;
9461;SDS011;4769;42.660;23.262;2023-03-01T11:41:21;7.33;;;5.00;;
9461;SDS011;4769;42.660;23.262;2023-03-01T11:43:51;7.47;;;5.00;;
9461;SDS011;4769;42.660;23.262;2023-03-01T11:46:32;5.97;;;5.17;;
9461;SDS011;4769;42.660;23.262;2023-03-01T11:49:15;9.47;;;5.23;;
9461;SDS011;4769;42.660;23.262;2023-03-01T11:51:59;6.47;;;4.80;;
9461;SDS011;4769;42.660;23.262;2023-03-01T11:54:39;5.77;;;4.57;;
9461;SDS011;4769;42.660;23.262;2023-03-01T11:57:14;7.47;;;4.90;;
9461;SDS011;4769;42.660;23.262;2023-03-01T11:59:51;11.37;;;6.10;;
9461;SDS011;4769;42.660;23.262;2023-03-01T12:08:38;5.57;;;4.83;;
9461;SDS011;4769;42.660;23.262;2023-03-01T12:11:15;6.43;;;5.37;;
9461;SDS011;4769;42.660;23.262;2023-03-01T12:14:03;8.40;;;5.80;;
9461;SDS011;4769;42.660;23.262;2023-03-01T12:19:42;8.03;;;5.47;;
9461;SDS011;4769;42.660;23.262;2023-03-01T12:22:27;8.60;;;5.43;;
9461;SDS011;4769;42.660;23.262;2023-03-01T12:27:59;8.33;;;5.50;;
9461;SDS011;4769;42.660;23.262;2023-03-01T12:30:50;6.00;;;5.30;;
9461;SDS011;4769;42.660;23.262;2023-03-01T12:33:27;9.03;;;5.97;;
9461;SDS011;4769;42.660;23.262;2023-03-01T12:36:10;14.30;;;6.20;;
9461;SDS011;4769;42.660;23.262;2023-03-01T12:38:49;6.77;;;4.97;;
9461;SDS011;4769;42.660;23.262;2023-03-01T12:41:30;8.43;;;5.83;;
9461;SDS011;4769;42.660;23.262;2023-03-01T12:44:15;8.07;;;5.20;;
9461;SDS011;4769;42.660;23.262;2023-03-01T12:47:00;8.33;;;5.20;;
9461;SDS011;4769;42.660;23.262;2023-03-01T12:49:37;9.20;;;6.23;;
9461;SDS011;4769;42.660;23.262;2023-03-01T12:52:10;6.00;;;5.13;;
9461;SDS011;4769;42.660;23.262;2023-03-01T12:54:40;5.67;;;4.63;;
9461;SDS011;4769;42.660;23.262;2023-03-01T12:57:08;5.15;;;4.65;;
9461;SDS011;4769;42.660;23.262;2023-03-01T12:59:57;4.90;;;4.23;;
9461;SDS011;4769;42.660;23.262;2023-03-01T13:02:31;6.43;;;4.97;;
9461;SDS011;4769;42.660;23.262;2023-03-01T13:05:06;5.43;;;4.32;;
9461;SDS011;4769;42.660;23.262;2023-03-01T13:07:49;6.00;;;4.78;;
9461;SDS011;4769;42.660;23.262;2023-03-01T13:10:21;7.65;;;5.13;;
9461;SDS011;4769;42.660;23.262;2023-03-01T13:13:00;4.80;;;4.40;;
9461;SDS011;4769;42.660;23.262;2023-03-01T13:15:40;4.60;;;4.20;;
9461;SDS011;4769;42.660;23.262;2023-03-01T13:20:53;9.48;;;5.88;;
9461;SDS011;4769;42.660;23.262;2023-03-01T13:23:25;5.88;;;4.65;;
9461;SDS011;4769;42.660;23.262;2023-03-01T13:26:01;7.93;;;4.90;;
9461;SDS011;4769;42.660;23.262;2023-03-01T13:34:47;6.75;;;5.38;;
9461;SDS011;4769;42.660;23.262;2023-03-01T13:37:25;6.50;;;4.88;;
9461;SDS011;4769;42.660;23.262;2023-03-01T13:39:52;6.30;;;4.37;;
9461;SDS011;4769;42.660;23.262;2023-03-01T13:42:31;8.23;;;4.60;;
9461;SDS011;4769;42.660;23.262;2023-03-01T13:44:58;8.35;;;5.60;;
9461;SDS011;4769;42.660;23.262;2023-03-01T13:47:28;5.13;;;4.73;;
9461;SDS011;4769;42.660;23.262;2023-03-01T13:49:55;6.00;;;5.40;;
9461;SDS011;4769;42.660;23.262;2023-03-01T13:52:30;9.47;;;5.83;;
9461;SDS011;4769;42.660;23.262;2023-03-01T13:55:03;6.68;;;5.28;;
9461;SDS011;4769;42.660;23.262;2023-03-01T13:57:32;6.53;;;5.30;;
9461;SDS011;4769;42.660;23.262;2023-03-01T14:00:00;6.63;;;5.53;;
9461;SDS011;4769;42.660;23.262;2023-03-01T14:05:24;8.47;;;4.60;;
9461;SDS011;4769;42.660;23.262;2023-03-01T14:07:50;7.67;;;4.83;;
9461;SDS011;4769;42.660;23.262;2023-03-01T14:10:16;5.97;;;4.73;;
9461;SDS011;4769;42.660;23.262;2023-03-01T14:12:43;6.10;;;4.87;;
9461;SDS011;4769;42.660;23.262;2023-03-01T14:15:16;5.93;;;5.00;;
9461;SDS011;4769;42.660;23.262;2023-03-01T14:17:53;5.83;;;5.27;;
9461;SDS011;4769;42.660;23.262;2023-03-01T14:20:25;8.43;;;5.67;;
9461;SDS011;4769;42.660;23.262;2023-03-01T14:22:54;7.53;;;4.83;;
9461;SDS011;4769;42.660;23.262;2023-03-01T14:25:23;9.03;;;5.10;;
9461;SDS011;4769;42.660;23.262;2023-03-01T14:27:51;5.40;;;4.90;;
9461;SDS011;4769;42.660;23.262;2023-03-01T14:30:22;5.07;;;4.57;;
9461;SDS011;4769;42.660;23.262;2023-03-01T14:32:57;6.67;;;5.10;;
9461;SDS011;4769;42.660;23.262;2023-03-01T14:35:25;9.40;;;5.43;;
9461;SDS011;4769;42.660;23.262;2023-03-01T14:37:51;6.07;;;5.30;;
9461;SDS011;4769;42.660;23.262;2023-03-01T14:40:21;8.13;;;4.73;;
9461;SDS011;4769;42.660;23.262;2023-03-01T14:42:49;8.67;;;5.33;;
9461;SDS011;4769;42.660;23.262;2023-03-01T14:45:16;8.10;;;5.27;;
9461;SDS011;4769;42.660;23.262;2023-03-01T14:47:43;9.63;;;4.80;;
9461;SDS011;4769;42.660;23.262;2023-03-01T14:50:15;10.90;;;4.83;;
9461;SDS011;4769;42.660;23.262;2023-03-01T14:52:47;11.73;;;5.53;;
9461;SDS011;4769;42.660;23.262;2023-03-01T14:55:15;5.83;;;5.20;;
9461;SDS011;4769;42.660;23.262;2023-03-01T14:57:43;7.00;;;5.73;;
9461;SDS011;4769;42.660;23.262;2023-03-01T15:00:16;9.30;;;5.50;;
9461;SDS011;4769;42.660;23.262;2023-03-01T15:02:45;5.97;;;4.77;;
9461;SDS011;4769;42.660;23.262;2023-03-01T15:05:15;8.63;;;4.93;;
9461;SDS011;4769;42.660;23.262;2023-03-01T15:07:47;7.80;;;5.20;;
9461;SDS011;4769;42.660;23.262;2023-03-01T15:10:14;8.03;;;5.27;;
9461;SDS011;4769;42.660;23.262;2023-03-01T15:12:44;6.30;;;4.60;;
9461;SDS011;4769;42.660;23.262;2023-03-01T15:18:13;10.03;;;5.30;;
9461;SDS011;4769;42.660;23.262;2023-03-01T15:20:54;14.83;;;7.20;;
9461;SDS011;4769;42.660;23.262;2023-03-01T15:23:21;8.07;;;6.53;;
9461;SDS011;4769;42.660;23.262;2023-03-01T15:25:49;9.03;;;6.40;;
9461;SDS011;4769;42.660;23.262;2023-03-01T15:28:18;10.10;;;6.13;;
9461;SDS011;4769;42.660;23.262;2023-03-01T15:30:45;9.57;;;5.40;;
9461;SDS011;4769;42.660;23.262;2023-03-01T15:33:18;7.87;;;6.00;;
9461;SDS011;4769;42.660;23.262;2023-03-01T15:41:48;9.77;;;6.63;;
9461;SDS011;4769;42.660;23.262;2023-03-01T15:44:15;10.07;;;6.37;;
9461;SDS011;4769;42.660;23.262;2023-03-01T15:46:44;8.27;;;5.77;;
9461;SDS011;4769;42.660;23.262;2023-03-01T15:49:19;6.73;;;5.87;;